sensor_id;sensor_type;location;lat;lon;timestamp;temperature;humidity
20091;DHT22;10205;49.678;6.560;2024-02-21T00:00:31;13.40;73.80
20091;DHT22;10205;49.678;6.560;2024-02-21T00:02:58;13.40;73.90
20091;DHT22;10205;49.678;6.560;2024-02-21T00:05:27;13.40;74.00
20091;DHT22;10205;49.678;6.560;2024-02-21T00:07:54;13.40;74.00
20091;DHT22;10205;49.678;6.560;2024-02-21T00:10:23;13.40;74.00
20091;DHT22;10205;49.678;6.560;2024-02-21T00:12:50;13.40;74.10
20091;DHT22;10205;49.678;6.560;2024-02-21T00:15:18;13.40;74.10
20091;DHT22;10205;49.678;6.560;2024-02-21T00:17:45;13.40;74.00
20091;DHT22;10205;49.678;6.560;2024-02-21T00:20:12;13.40;73.90
20091;DHT22;10205;49.678;6.560;2024-02-21T00:22:39;13.40;74.70
20091;DHT22;10205;49.678;6.560;2024-02-21T00:25:06;13.40;73.70
20091;DHT22;10205;49.678;6.560;2024-02-21T00:27:35;13.40;73.80
20091;DHT22;10205;49.678;6.560;2024-02-21T00:30:03;13.40;73.80
20091;DHT22;10205;49.678;6.560;2024-02-21T00:32:31;13.40;73.80
20091;DHT22;10205;49.678;6.560;2024-02-21T00:34:59;13.40;73.80
20091;DHT22;10205;49.678;6.560;2024-02-21T00:37:27;13.30;73.70
20091;DHT22;10205;49.678;6.560;2024-02-21T00:39:54;13.30;73.70
20091;DHT22;10205;49.678;6.560;2024-02-21T00:42:21;13.20;74.60
20091;DHT22;10205;49.678;6.560;2024-02-21T00:44:50;13.20;73.90
20091;DHT22;10205;49.678;6.560;2024-02-21T00:47:17;13.30;74.00
20091;DHT22;10205;49.678;6.560;2024-02-21T00:49:44;13.20;73.90
20091;DHT22;10205;49.678;6.560;2024-02-21T00:52:11;13.20;73.70
20091;DHT22;10205;49.678;6.560;2024-02-21T00:54:38;13.10;73.80
20091;DHT22;10205;49.678;6.560;2024-02-21T00:57:05;13.10;74.00
20091;DHT22;10205;49.678;6.560;2024-02-21T00:59:33;13.10;74.00
20091;DHT22;10205;49.678;6.560;2024-02-21T01:02:01;13.10;74.20
20091;DHT22;10205;49.678;6.560;2024-02-21T01:04:28;13.10;74.40
20091;DHT22;10205;49.678;6.560;2024-02-21T01:06:55;13.10;74.40
20091;DHT22;10205;49.678;6.560;2024-02-21T01:09:22;13.10;74.30
20091;DHT22;10205;49.678;6.560;2024-02-21T01:11:49;13.10;74.30
20091;DHT22;10205;49.678;6.560;2024-02-21T01:14:16;13.10;74.30
20091;DHT22;10205;49.678;6.560;2024-02-21T01:16:43;13.10;74.40
20091;DHT22;10205;49.678;6.560;2024-02-21T01:19:12;13.10;74.40
20091;DHT22;10205;49.678;6.560;2024-02-21T01:21:39;13.10;74.40
20091;DHT22;10205;49.678;6.560;2024-02-21T01:24:06;13.10;73.90
20091;DHT22;10205;49.678;6.560;2024-02-21T01:26:33;13.10;73.60
20091;DHT22;10205;49.678;6.560;2024-02-21T01:29:00;13.10;73.50
20091;DHT22;10205;49.678;6.560;2024-02-21T01:31:27;13.10;73.50
20091;DHT22;10205;49.678;6.560;2024-02-21T01:33:54;13.00;73.60
20091;DHT22;10205;49.678;6.560;2024-02-21T01:36:23;13.00;73.60
20091;DHT22;10205;49.678;6.560;2024-02-21T01:38:50;12.90;73.60
20091;DHT22;10205;49.678;6.560;2024-02-21T01:41:17;12.90;73.80
20091;DHT22;10205;49.678;6.560;2024-02-21T01:43:44;12.80;73.80
20091;DHT22;10205;49.678;6.560;2024-02-21T01:46:11;12.80;73.60
20091;DHT22;10205;49.678;6.560;2024-02-21T01:48:38;12.80;73.80
20091;DHT22;10205;49.678;6.560;2024-02-21T01:51:06;12.80;73.80
20091;DHT22;10205;49.678;6.560;2024-02-21T01:53:36;12.80;74.80
20091;DHT22;10205;49.678;6.560;2024-02-21T01:56:05;12.80;74.30
20091;DHT22;10205;49.678;6.560;2024-02-21T01:58:35;12.70;74.30
20091;DHT22;10205;49.678;6.560;2024-02-21T02:01:04;12.70;74.30
20091;DHT22;10205;49.678;6.560;2024-02-21T02:03:31;12.80;74.50
20091;DHT22;10205;49.678;6.560;2024-02-21T02:05:59;12.70;74.20
20091;DHT22;10205;49.678;6.560;2024-02-21T02:08:27;12.70;74.20
20091;DHT22;10205;49.678;6.560;2024-02-21T02:10:56;12.70;74.30
20091;DHT22;10205;49.678;6.560;2024-02-21T02:13:23;12.70;74.30
20091;DHT22;10205;49.678;6.560;2024-02-21T02:15:51;12.70;74.30
20091;DHT22;10205;49.678;6.560;2024-02-21T02:18:20;12.70;74.20
20091;DHT22;10205;49.678;6.560;2024-02-21T02:20:47;12.70;74.20
20091;DHT22;10205;49.678;6.560;2024-02-21T02:23:21;12.70;74.00
20091;DHT22;10205;49.678;6.560;2024-02-21T02:25:50;12.70;74.00
20091;DHT22;10205;49.678;6.560;2024-02-21T02:28:18;12.70;74.00
20091;DHT22;10205;49.678;6.560;2024-02-21T02:30:46;12.60;74.00
20091;DHT22;10205;49.678;6.560;2024-02-21T02:33:13;12.60;74.20
20091;DHT22;10205;49.678;6.560;2024-02-21T02:35:40;12.60;74.20
20091;DHT22;10205;49.678;6.560;2024-02-21T02:38:07;12.60;74.20
20091;DHT22;10205;49.678;6.560;2024-02-21T02:40:37;12.60;74.30
20091;DHT22;10205;49.678;6.560;2024-02-21T02:43:06;12.60;74.50
20091;DHT22;10205;49.678;6.560;2024-02-21T02:45:33;12.60;74.50
20091;DHT22;10205;49.678;6.560;2024-02-21T02:48:00;12.60;74.50
20091;DHT22;10205;49.678;6.560;2024-02-21T02:50:27;12.60;74.40
20091;DHT22;10205;49.678;6.560;2024-02-21T02:52:55;12.60;74.40
20091;DHT22;10205;49.678;6.560;2024-02-21T02:55:22;12.60;74.20
20091;DHT22;10205;49.678;6.560;2024-02-21T02:57:51;12.60;74.00
20091;DHT22;10205;49.678;6.560;2024-02-21T03:00:18;12.60;73.80
20091;DHT22;10205;49.678;6.560;2024-02-21T03:02:46;12.60;74.00
20091;DHT22;10205;49.678;6.560;2024-02-21T03:05:17;12.50;73.90
20091;DHT22;10205;49.678;6.560;2024-02-21T03:07:46;12.50;73.90
20091;DHT22;10205;49.678;6.560;2024-02-21T03:10:15;12.50;73.90
20091;DHT22;10205;49.678;6.560;2024-02-21T03:12:42;12.50;73.90
20091;DHT22;10205;49.678;6.560;2024-02-21T03:15:12;12.50;73.80
20091;DHT22;10205;49.678;6.560;2024-02-21T03:17:39;12.50;74.00
20091;DHT22;10205;49.678;6.560;2024-02-21T03:20:07;12.50;74.20
20091;DHT22;10205;49.678;6.560;2024-02-21T03:22:35;12.50;74.00
20091;DHT22;10205;49.678;6.560;2024-02-21T03:25:03;12.50;74.00
20091;DHT22;10205;49.678;6.560;2024-02-21T03:27:31;12.50;74.20
20091;DHT22;10205;49.678;6.560;2024-02-21T03:29:59;12.50;74.00
20091;DHT22;10205;49.678;6.560;2024-02-21T03:32:27;12.50;73.90
20091;DHT22;10205;49.678;6.560;2024-02-21T03:34:54;12.50;74.20
20091;DHT22;10205;49.678;6.560;2024-02-21T03:37:22;12.50;74.30
20091;DHT22;10205;49.678;6.560;2024-02-21T03:39:49;12.50;74.20
20091;DHT22;10205;49.678;6.560;2024-02-21T03:42:16;12.50;73.90
20091;DHT22;10205;49.678;6.560;2024-02-21T03:44:43;12.40;73.80
20091;DHT22;10205;49.678;6.560;2024-02-21T03:47:11;12.40;73.80
20091;DHT22;10205;49.678;6.560;2024-02-21T03:49:39;12.40;73.80
20091;DHT22;10205;49.678;6.560;2024-02-21T03:52:06;12.40;74.00
20091;DHT22;10205;49.678;6.560;2024-02-21T03:54:33;12.40;74.00
20091;DHT22;10205;49.678;6.560;2024-02-21T03:57:00;12.40;74.00
20091;DHT22;10205;49.678;6.560;2024-02-21T03:59:28;12.40;74.00
20091;DHT22;10205;49.678;6.560;2024-02-21T04:01:55;12.40;73.60
20091;DHT22;10205;49.678;6.560;2024-02-21T04:04:22;12.40;73.80
20091;DHT22;10205;49.678;6.560;2024-02-21T04:06:51;12.40;74.00
20091;DHT22;10205;49.678;6.560;2024-02-21T04:09:20;12.40;74.00
20091;DHT22;10205;49.678;6.560;2024-02-21T04:11:47;12.40;74.00
20091;DHT22;10205;49.678;6.560;2024-02-21T04:14:14;12.40;74.00
20091;DHT22;10205;49.678;6.560;2024-02-21T04:16:41;12.30;74.00
20091;DHT22;10205;49.678;6.560;2024-02-21T04:19:08;12.40;74.30
20091;DHT22;10205;49.678;6.560;2024-02-21T04:21:35;12.30;74.40
20091;DHT22;10205;49.678;6.560;2024-02-21T04:24:07;12.40;74.50
20091;DHT22;10205;49.678;6.560;2024-02-21T04:26:34;12.40;74.30
20091;DHT22;10205;49.678;6.560;2024-02-21T04:29:01;12.40;74.30
20091;DHT22;10205;49.678;6.560;2024-02-21T04:31:28;12.40;74.40
20091;DHT22;10205;49.678;6.560;2024-02-21T04:33:56;12.40;74.40
20091;DHT22;10205;49.678;6.560;2024-02-21T04:36:23;12.40;74.30
20091;DHT22;10205;49.678;6.560;2024-02-21T04:38:50;12.40;74.20
20091;DHT22;10205;49.678;6.560;2024-02-21T04:41:18;12.30;74.20
20091;DHT22;10205;49.678;6.560;2024-02-21T04:43:46;12.30;74.40
20091;DHT22;10205;49.678;6.560;2024-02-21T04:46:13;12.30;74.20
20091;DHT22;10205;49.678;6.560;2024-02-21T04:48:41;12.30;74.00
20091;DHT22;10205;49.678;6.560;2024-02-21T04:51:08;12.30;74.10
20091;DHT22;10205;49.678;6.560;2024-02-21T04:53:35;12.30;74.30
20091;DHT22;10205;49.678;6.560;2024-02-21T04:56:02;12.30;74.20
20091;DHT22;10205;49.678;6.560;2024-02-21T04:58:31;12.30;74.20
20091;DHT22;10205;49.678;6.560;2024-02-21T05:00:58;12.30;74.30
20091;DHT22;10205;49.678;6.560;2024-02-21T05:03:25;12.30;74.20
20091;DHT22;10205;49.678;6.560;2024-02-21T05:05:52;12.30;74.20
20091;DHT22;10205;49.678;6.560;2024-02-21T05:08:19;12.30;74.10
20091;DHT22;10205;49.678;6.560;2024-02-21T05:10:46;12.20;74.20
20091;DHT22;10205;49.678;6.560;2024-02-21T05:13:13;12.20;74.20
20091;DHT22;10205;49.678;6.560;2024-02-21T05:15:42;12.20;74.10
20091;DHT22;10205;49.678;6.560;2024-02-21T05:18:09;12.20;74.30
20091;DHT22;10205;49.678;6.560;2024-02-21T05:20:36;12.20;74.50
20091;DHT22;10205;49.678;6.560;2024-02-21T05:23:03;12.20;74.60
20091;DHT22;10205;49.678;6.560;2024-02-21T05:25:30;12.20;75.30
20091;DHT22;10205;49.678;6.560;2024-02-21T05:27:57;12.20;74.40
20091;DHT22;10205;49.678;6.560;2024-02-21T05:30:28;12.20;74.30
20091;DHT22;10205;49.678;6.560;2024-02-21T05:32:56;12.20;74.30
20091;DHT22;10205;49.678;6.560;2024-02-21T05:35:27;12.20;74.50
20091;DHT22;10205;49.678;6.560;2024-02-21T05:37:55;12.20;74.40
20091;DHT22;10205;49.678;6.560;2024-02-21T05:40:22;12.10;74.30
20091;DHT22;10205;49.678;6.560;2024-02-21T05:42:49;12.20;74.30
20091;DHT22;10205;49.678;6.560;2024-02-21T05:45:17;12.20;74.30
20091;DHT22;10205;49.678;6.560;2024-02-21T05:47:44;12.10;74.40
20091;DHT22;10205;49.678;6.560;2024-02-21T05:50:13;12.10;74.40
20091;DHT22;10205;49.678;6.560;2024-02-21T05:52:40;12.10;74.60
20091;DHT22;10205;49.678;6.560;2024-02-21T05:55:08;12.10;75.30
20091;DHT22;10205;49.678;6.560;2024-02-21T05:57:35;12.10;74.50
20091;DHT22;10205;49.678;6.560;2024-02-21T06:00:04;12.10;74.40
20091;DHT22;10205;49.678;6.560;2024-02-21T06:02:32;12.10;74.40
20091;DHT22;10205;49.678;6.560;2024-02-21T06:05:01;12.10;74.50
20091;DHT22;10205;49.678;6.560;2024-02-21T06:07:29;12.10;74.50
20091;DHT22;10205;49.678;6.560;2024-02-21T06:09:56;12.10;74.40
20091;DHT22;10205;49.678;6.560;2024-02-21T06:12:23;12.10;74.40
20091;DHT22;10205;49.678;6.560;2024-02-21T06:14:50;12.10;74.50
20091;DHT22;10205;49.678;6.560;2024-02-21T06:17:18;12.10;75.10
20091;DHT22;10205;49.678;6.560;2024-02-21T06:19:45;12.10;75.50
20091;DHT22;10205;49.678;6.560;2024-02-21T06:22:12;12.10;74.70
20091;DHT22;10205;49.678;6.560;2024-02-21T06:24:40;12.10;74.80
20091;DHT22;10205;49.678;6.560;2024-02-21T06:27:08;12.10;74.70
20091;DHT22;10205;49.678;6.560;2024-02-21T06:29:36;12.10;74.70
20091;DHT22;10205;49.678;6.560;2024-02-21T06:32:04;12.10;74.60
20091;DHT22;10205;49.678;6.560;2024-02-21T06:34:31;12.10;74.60
20091;DHT22;10205;49.678;6.560;2024-02-21T06:36:58;12.10;74.60
20091;DHT22;10205;49.678;6.560;2024-02-21T06:39:25;12.10;74.30
20091;DHT22;10205;49.678;6.560;2024-02-21T06:41:56;12.10;74.40
20091;DHT22;10205;49.678;6.560;2024-02-21T06:44:23;12.10;74.60
20091;DHT22;10205;49.678;6.560;2024-02-21T06:46:50;12.10;74.40
20091;DHT22;10205;49.678;6.560;2024-02-21T06:49:17;12.10;74.20
20091;DHT22;10205;49.678;6.560;2024-02-21T06:51:44;12.00;74.00
20091;DHT22;10205;49.678;6.560;2024-02-21T06:54:11;12.00;74.00
20091;DHT22;10205;49.678;6.560;2024-02-21T06:56:40;12.00;74.00
20091;DHT22;10205;49.678;6.560;2024-02-21T06:59:08;12.00;74.10
20091;DHT22;10205;49.678;6.560;2024-02-21T07:01:36;12.00;74.10
20091;DHT22;10205;49.678;6.560;2024-02-21T07:04:03;12.00;74.20
20091;DHT22;10205;49.678;6.560;2024-02-21T07:06:30;12.00;74.10
20091;DHT22;10205;49.678;6.560;2024-02-21T07:08:57;12.00;73.90
20091;DHT22;10205;49.678;6.560;2024-02-21T07:11:24;12.00;74.00
20091;DHT22;10205;49.678;6.560;2024-02-21T07:13:52;12.00;74.20
20091;DHT22;10205;49.678;6.560;2024-02-21T07:16:20;12.00;74.30
20091;DHT22;10205;49.678;6.560;2024-02-21T07:18:48;12.00;74.40
20091;DHT22;10205;49.678;6.560;2024-02-21T07:21:15;12.00;74.40
20091;DHT22;10205;49.678;6.560;2024-02-21T07:23:42;12.00;74.40
20091;DHT22;10205;49.678;6.560;2024-02-21T07:26:09;12.00;74.40
20091;DHT22;10205;49.678;6.560;2024-02-21T07:28:36;12.00;74.50
20091;DHT22;10205;49.678;6.560;2024-02-21T07:31:03;12.00;74.50
20091;DHT22;10205;49.678;6.560;2024-02-21T07:33:31;12.00;74.40
20091;DHT22;10205;49.678;6.560;2024-02-21T07:36:00;12.00;74.40
20091;DHT22;10205;49.678;6.560;2024-02-21T07:38:27;12.00;74.50
20091;DHT22;10205;49.678;6.560;2024-02-21T07:40:55;12.00;74.40
20091;DHT22;10205;49.678;6.560;2024-02-21T07:43:22;12.00;74.10
20091;DHT22;10205;49.678;6.560;2024-02-21T07:45:49;12.00;74.10
20091;DHT22;10205;49.678;6.560;2024-02-21T07:48:16;12.00;74.20
20091;DHT22;10205;49.678;6.560;2024-02-21T07:50:45;12.00;74.20
20091;DHT22;10205;49.678;6.560;2024-02-21T07:53:14;12.00;74.10
20091;DHT22;10205;49.678;6.560;2024-02-21T07:55:41;12.00;74.10
20091;DHT22;10205;49.678;6.560;2024-02-21T07:58:09;12.00;75.10
20091;DHT22;10205;49.678;6.560;2024-02-21T08:00:36;12.00;74.30
20091;DHT22;10205;49.678;6.560;2024-02-21T08:03:03;12.00;74.40
20091;DHT22;10205;49.678;6.560;2024-02-21T08:05:30;12.00;74.50
20091;DHT22;10205;49.678;6.560;2024-02-21T08:08:02;12.00;74.40
20091;DHT22;10205;49.678;6.560;2024-02-21T08:10:30;12.00;74.40
20091;DHT22;10205;49.678;6.560;2024-02-21T08:12:57;12.00;74.40
20091;DHT22;10205;49.678;6.560;2024-02-21T08:15:24;12.00;74.40
20091;DHT22;10205;49.678;6.560;2024-02-21T08:17:54;12.00;74.40
20091;DHT22;10205;49.678;6.560;2024-02-21T08:20:25;12.00;74.40
20091;DHT22;10205;49.678;6.560;2024-02-21T08:22:52;12.00;74.20
20091;DHT22;10205;49.678;6.560;2024-02-21T08:25:20;12.00;74.20
20091;DHT22;10205;49.678;6.560;2024-02-21T08:27:47;12.00;74.10
20091;DHT22;10205;49.678;6.560;2024-02-21T08:30:15;12.00;75.00
20091;DHT22;10205;49.678;6.560;2024-02-21T08:32:42;12.00;74.10
20091;DHT22;10205;49.678;6.560;2024-02-21T08:35:09;12.00;74.10
20091;DHT22;10205;49.678;6.560;2024-02-21T08:37:37;12.00;74.10
20091;DHT22;10205;49.678;6.560;2024-02-21T08:40:05;12.00;74.10
20091;DHT22;10205;49.678;6.560;2024-02-21T08:42:36;12.00;74.10
20091;DHT22;10205;49.678;6.560;2024-02-21T08:45:06;12.00;74.10
20091;DHT22;10205;49.678;6.560;2024-02-21T08:47:34;12.00;74.00
20091;DHT22;10205;49.678;6.560;2024-02-21T08:50:02;12.00;74.10
20091;DHT22;10205;49.678;6.560;2024-02-21T08:52:31;12.00;74.10
20091;DHT22;10205;49.678;6.560;2024-02-21T08:54:58;12.00;74.00
20091;DHT22;10205;49.678;6.560;2024-02-21T08:57:25;12.00;74.00
20091;DHT22;10205;49.678;6.560;2024-02-21T08:59:55;12.00;73.80
20091;DHT22;10205;49.678;6.560;2024-02-21T09:02:21;12.00;73.90
20091;DHT22;10205;49.678;6.560;2024-02-21T09:04:48;12.10;74.00
20091;DHT22;10205;49.678;6.560;2024-02-21T09:07:16;12.10;74.00
20091;DHT22;10205;49.678;6.560;2024-02-21T09:09:43;12.10;74.10
20091;DHT22;10205;49.678;6.560;2024-02-21T09:12:10;12.10;74.20
20091;DHT22;10205;49.678;6.560;2024-02-21T09:14:37;12.10;74.20
20091;DHT22;10205;49.678;6.560;2024-02-21T09:17:06;12.10;74.30
20091;DHT22;10205;49.678;6.560;2024-02-21T09:19:35;12.10;74.20
20091;DHT22;10205;49.678;6.560;2024-02-21T09:22:02;12.20;74.20
20091;DHT22;10205;49.678;6.560;2024-02-21T09:24:29;12.10;74.10
20091;DHT22;10205;49.678;6.560;2024-02-21T09:26:56;12.20;74.20
20091;DHT22;10205;49.678;6.560;2024-02-21T09:29:23;12.20;74.20
20091;DHT22;10205;49.678;6.560;2024-02-21T09:31:50;12.20;74.20
20091;DHT22;10205;49.678;6.560;2024-02-21T09:34:19;12.20;74.00
20091;DHT22;10205;49.678;6.560;2024-02-21T09:36:47;12.30;74.10
20091;DHT22;10205;49.678;6.560;2024-02-21T09:39:14;12.30;74.00
20091;DHT22;10205;49.678;6.560;2024-02-21T09:41:48;12.30;73.90
20091;DHT22;10205;49.678;6.560;2024-02-21T09:44:21;12.30;73.80
20091;DHT22;10205;49.678;6.560;2024-02-21T09:46:52;12.30;73.80
20091;DHT22;10205;49.678;6.560;2024-02-21T09:49:30;12.30;73.90
20091;DHT22;10205;49.678;6.560;2024-02-21T09:52:00;12.30;73.70
20091;DHT22;10205;49.678;6.560;2024-02-21T09:54:29;12.40;73.70
20091;DHT22;10205;49.678;6.560;2024-02-21T09:56:57;12.40;73.80
20091;DHT22;10205;49.678;6.560;2024-02-21T09:59:24;12.40;73.80
20091;DHT22;10205;49.678;6.560;2024-02-21T10:01:54;12.40;73.70
20091;DHT22;10205;49.678;6.560;2024-02-21T10:04:21;12.40;73.70
20091;DHT22;10205;49.678;6.560;2024-02-21T10:06:49;12.40;73.60
20091;DHT22;10205;49.678;6.560;2024-02-21T10:09:21;12.50;73.60
20091;DHT22;10205;49.678;6.560;2024-02-21T10:11:49;12.50;73.60
20091;DHT22;10205;49.678;6.560;2024-02-21T10:14:17;12.50;73.60
20091;DHT22;10205;49.678;6.560;2024-02-21T10:16:47;12.50;73.50
20091;DHT22;10205;49.678;6.560;2024-02-21T10:19:18;12.50;73.50
20091;DHT22;10205;49.678;6.560;2024-02-21T10:22:04;12.50;73.50
20091;DHT22;10205;49.678;6.560;2024-02-21T10:24:34;12.50;73.30
20091;DHT22;10205;49.678;6.560;2024-02-21T10:27:04;12.50;73.40
20091;DHT22;10205;49.678;6.560;2024-02-21T10:29:34;12.50;73.40
20091;DHT22;10205;49.678;6.560;2024-02-21T10:32:05;12.60;73.50
20091;DHT22;10205;49.678;6.560;2024-02-21T10:34:33;12.60;73.40
20091;DHT22;10205;49.678;6.560;2024-02-21T10:37:03;12.60;73.40
20091;DHT22;10205;49.678;6.560;2024-02-21T10:39:31;12.60;73.40
20091;DHT22;10205;49.678;6.560;2024-02-21T10:42:00;12.60;73.50
20091;DHT22;10205;49.678;6.560;2024-02-21T10:44:30;12.70;73.60
20091;DHT22;10205;49.678;6.560;2024-02-21T10:46:59;12.60;73.40
20091;DHT22;10205;49.678;6.560;2024-02-21T10:49:26;12.70;73.60
20091;DHT22;10205;49.678;6.560;2024-02-21T10:52:13;12.70;73.60
20091;DHT22;10205;49.678;6.560;2024-02-21T10:54:45;12.70;73.40
20091;DHT22;10205;49.678;6.560;2024-02-21T10:57:17;12.70;73.40
20091;DHT22;10205;49.678;6.560;2024-02-21T10:59:48;12.70;73.50
20091;DHT22;10205;49.678;6.560;2024-02-21T11:02:15;12.70;73.40
20091;DHT22;10205;49.678;6.560;2024-02-21T11:04:43;12.80;73.40
20091;DHT22;10205;49.678;6.560;2024-02-21T11:07:14;12.80;73.30
20091;DHT22;10205;49.678;6.560;2024-02-21T11:09:50;12.80;73.20
20091;DHT22;10205;49.678;6.560;2024-02-21T11:12:20;12.90;73.00
20091;DHT22;10205;49.678;6.560;2024-02-21T11:14:48;12.90;73.10
20091;DHT22;10205;49.678;6.560;2024-02-21T11:17:15;12.90;73.00
20091;DHT22;10205;49.678;6.560;2024-02-21T11:19:43;12.90;73.00
20091;DHT22;10205;49.678;6.560;2024-02-21T11:22:16;12.90;72.90
20091;DHT22;10205;49.678;6.560;2024-02-21T11:24:44;12.90;72.70
20091;DHT22;10205;49.678;6.560;2024-02-21T11:27:12;12.90;72.60
20091;DHT22;10205;49.678;6.560;2024-02-21T11:29:42;12.90;72.50
20091;DHT22;10205;49.678;6.560;2024-02-21T11:32:09;13.00;72.60
20091;DHT22;10205;49.678;6.560;2024-02-21T11:34:37;13.00;72.60
20091;DHT22;10205;49.678;6.560;2024-02-21T11:37:14;13.00;72.50
20091;DHT22;10205;49.678;6.560;2024-02-21T11:39:42;13.00;72.00
20091;DHT22;10205;49.678;6.560;2024-02-21T11:42:10;13.00;72.40
20091;DHT22;10205;49.678;6.560;2024-02-21T11:44:38;13.00;72.40
20091;DHT22;10205;49.678;6.560;2024-02-21T11:47:08;13.10;72.40
20091;DHT22;10205;49.678;6.560;2024-02-21T11:49:37;13.10;72.20
20091;DHT22;10205;49.678;6.560;2024-02-21T11:52:06;13.10;72.20
20091;DHT22;10205;49.678;6.560;2024-02-21T11:54:36;13.10;72.20
20091;DHT22;10205;49.678;6.560;2024-02-21T11:57:04;13.10;72.10
20091;DHT22;10205;49.678;6.560;2024-02-21T11:59:31;13.10;72.10
20091;DHT22;10205;49.678;6.560;2024-02-21T12:01:59;13.20;72.00
20091;DHT22;10205;49.678;6.560;2024-02-21T12:04:28;13.20;72.00
20091;DHT22;10205;49.678;6.560;2024-02-21T12:06:57;13.10;72.60
20091;DHT22;10205;49.678;6.560;2024-02-21T12:09:25;13.20;71.90
20091;DHT22;10205;49.678;6.560;2024-02-21T12:12:00;13.20;71.90
20091;DHT22;10205;49.678;6.560;2024-02-21T12:14:29;13.20;71.80
20091;DHT22;10205;49.678;6.560;2024-02-21T12:16:58;13.20;71.90
20091;DHT22;10205;49.678;6.560;2024-02-21T12:19:26;13.20;71.90
20091;DHT22;10205;49.678;6.560;2024-02-21T12:21:55;13.20;71.90
20091;DHT22;10205;49.678;6.560;2024-02-21T12:24:24;13.20;71.70
20091;DHT22;10205;49.678;6.560;2024-02-21T12:26:52;13.20;71.70
20091;DHT22;10205;49.678;6.560;2024-02-21T12:29:22;13.20;71.60
20091;DHT22;10205;49.678;6.560;2024-02-21T12:31:50;13.20;71.70
20091;DHT22;10205;49.678;6.560;2024-02-21T12:34:17;13.30;71.70
20091;DHT22;10205;49.678;6.560;2024-02-21T12:36:45;13.30;71.80
20091;DHT22;10205;49.678;6.560;2024-02-21T12:39:13;13.30;71.70
20091;DHT22;10205;49.678;6.560;2024-02-21T12:41:41;13.30;71.70
20091;DHT22;10205;49.678;6.560;2024-02-21T12:44:10;13.30;71.70
20091;DHT22;10205;49.678;6.560;2024-02-21T12:46:39;13.30;71.50
20091;DHT22;10205;49.678;6.560;2024-02-21T12:49:07;13.30;71.40
20091;DHT22;10205;49.678;6.560;2024-02-21T12:51:34;13.30;71.50
20091;DHT22;10205;49.678;6.560;2024-02-21T12:54:03;13.30;71.60
20091;DHT22;10205;49.678;6.560;2024-02-21T12:56:30;13.40;71.50
20091;DHT22;10205;49.678;6.560;2024-02-21T12:58:58;13.40;71.50
20091;DHT22;10205;49.678;6.560;2024-02-21T13:01:33;13.40;71.50
20091;DHT22;10205;49.678;6.560;2024-02-21T13:04:02;13.40;71.10
20091;DHT22;10205;49.678;6.560;2024-02-21T13:06:29;13.40;71.30
20091;DHT22;10205;49.678;6.560;2024-02-21T13:08:56;13.50;71.50
20091;DHT22;10205;49.678;6.560;2024-02-21T13:11:24;13.50;71.40
20091;DHT22;10205;49.678;6.560;2024-02-21T13:13:53;13.50;71.20
20091;DHT22;10205;49.678;6.560;2024-02-21T13:16:20;13.60;71.20
20091;DHT22;10205;49.678;6.560;2024-02-21T13:18:48;13.60;71.00
20091;DHT22;10205;49.678;6.560;2024-02-21T13:21:16;13.60;71.00
20091;DHT22;10205;49.678;6.560;2024-02-21T13:23:44;13.60;71.60
20091;DHT22;10205;49.678;6.560;2024-02-21T13:26:11;13.60;70.90
20091;DHT22;10205;49.678;6.560;2024-02-21T13:28:38;13.60;70.80
20091;DHT22;10205;49.678;6.560;2024-02-21T13:31:05;13.70;70.90
20091;DHT22;10205;49.678;6.560;2024-02-21T13:33:32;13.70;70.70
20091;DHT22;10205;49.678;6.560;2024-02-21T13:35:59;13.70;70.40
20091;DHT22;10205;49.678;6.560;2024-02-21T13:38:28;13.70;70.60
20091;DHT22;10205;49.678;6.560;2024-02-21T13:40:56;13.70;71.30
20091;DHT22;10205;49.678;6.560;2024-02-21T13:43:23;13.70;70.50
20091;DHT22;10205;49.678;6.560;2024-02-21T13:45:56;13.70;70.40
20091;DHT22;10205;49.678;6.560;2024-02-21T13:48:24;13.80;69.90
20091;DHT22;10205;49.678;6.560;2024-02-21T13:50:52;13.80;70.10
20091;DHT22;10205;49.678;6.560;2024-02-21T13:53:21;13.80;70.00
20091;DHT22;10205;49.678;6.560;2024-02-21T13:55:49;13.80;70.00
20091;DHT22;10205;49.678;6.560;2024-02-21T13:58:17;13.90;70.00
20091;DHT22;10205;49.678;6.560;2024-02-21T14:00:44;13.80;70.70
20091;DHT22;10205;49.678;6.560;2024-02-21T14:03:11;13.80;69.80
20091;DHT22;10205;49.678;6.560;2024-02-21T14:05:38;13.90;69.90
20091;DHT22;10205;49.678;6.560;2024-02-21T14:08:06;13.90;69.90
20091;DHT22;10205;49.678;6.560;2024-02-21T14:10:33;13.90;69.90
20091;DHT22;10205;49.678;6.560;2024-02-21T14:13:02;14.00;69.90
20091;DHT22;10205;49.678;6.560;2024-02-21T14:15:29;14.00;69.60
20091;DHT22;10205;49.678;6.560;2024-02-21T14:17:56;14.00;69.50
20091;DHT22;10205;49.678;6.560;2024-02-21T14:20:23;14.00;69.50
20091;DHT22;10205;49.678;6.560;2024-02-21T14:22:50;14.00;69.60
20091;DHT22;10205;49.678;6.560;2024-02-21T14:25:17;14.00;69.60
20091;DHT22;10205;49.678;6.560;2024-02-21T14:27:44;14.00;69.40
20091;DHT22;10205;49.678;6.560;2024-02-21T14:30:13;14.00;69.50
20091;DHT22;10205;49.678;6.560;2024-02-21T14:32:43;14.00;69.40
20091;DHT22;10205;49.678;6.560;2024-02-21T14:35:11;14.00;69.50
20091;DHT22;10205;49.678;6.560;2024-02-21T14:37:38;14.10;69.60
20091;DHT22;10205;49.678;6.560;2024-02-21T14:40:06;14.10;69.50
20091;DHT22;10205;49.678;6.560;2024-02-21T14:42:34;14.10;69.30
20091;DHT22;10205;49.678;6.560;2024-02-21T14:45:01;14.10;69.60
20091;DHT22;10205;49.678;6.560;2024-02-21T14:47:31;14.10;69.50
20091;DHT22;10205;49.678;6.560;2024-02-21T14:49:59;14.10;69.20
20091;DHT22;10205;49.678;6.560;2024-02-21T14:52:28;14.10;69.30
20091;DHT22;10205;49.678;6.560;2024-02-21T14:54:55;14.10;69.30
20091;DHT22;10205;49.678;6.560;2024-02-21T14:57:22;14.10;69.30
20091;DHT22;10205;49.678;6.560;2024-02-21T14:59:50;14.10;69.20
20091;DHT22;10205;49.678;6.560;2024-02-21T15:02:21;14.10;69.30
20091;DHT22;10205;49.678;6.560;2024-02-21T15:04:50;14.00;69.10
20091;DHT22;10205;49.678;6.560;2024-02-21T15:07:17;14.00;68.70
20091;DHT22;10205;49.678;6.560;2024-02-21T15:09:49;14.00;68.90
20091;DHT22;10205;49.678;6.560;2024-02-21T15:12:17;14.00;68.90
20091;DHT22;10205;49.678;6.560;2024-02-21T15:14:44;14.00;68.90
20091;DHT22;10205;49.678;6.560;2024-02-21T15:17:11;14.00;69.80
20091;DHT22;10205;49.678;6.560;2024-02-21T15:19:39;14.00;69.00
20091;DHT22;10205;49.678;6.560;2024-02-21T15:22:10;14.00;69.00
20091;DHT22;10205;49.678;6.560;2024-02-21T15:24:38;14.00;69.10
20091;DHT22;10205;49.678;6.560;2024-02-21T15:27:05;14.00;69.20
20091;DHT22;10205;49.678;6.560;2024-02-21T15:29:33;14.00;69.00
20091;DHT22;10205;49.678;6.560;2024-02-21T15:32:01;14.00;69.20
20091;DHT22;10205;49.678;6.560;2024-02-21T15:34:29;14.10;69.30